Current | Forecast
Updated: 1:00 PM JST on June 21, 2018
Observed at Niigata Airport, Japan
Temperature 77°F
Humidity 65%
Dew Point 64°F
Wind SW at 16 mph
Pressure 29.59 in (Steady)
Conditions Partly Cloudy
Visibility 6.2 miles
UV 10 out of 16
Clouds (FEW) : 2000 ft
Yesterday's Maximum 77°F
Yesterday's Minimum 68°F approx.
Yesterday's Cooling Degree Days 8 approx.
Sunrise4:23 AM JST
Sunset7:08 PM JST
Moon Rise12:22 PM JST
Moon Set12:10 AM JST
Moon PhaseMoon Phase
First Quarter
Raw METARMETAR RJSN 210400Z 22014KT 190V260 9999 FEW020 BKN/// 25/18 Q1002


Monday
. High: 73° F.
Tuesday
. High: 73° F.
Wednesday
. High: 62° F.
Thursday
. High: 66° F.
Friday
. High: 68° F.
Saturday
. High: 66° F.
Sunday
. High: 66° F.
Monday
. High: 62° F.

Units: English | Metric

Find the Weather for any City, State or Zipcode, or Country:

U.S. State List | Severe Weather | Tropical Storms | Ski Conditions
United States | Canada | Central America | South America | Asia | Europe | Australia | Africa | Islands

Weather Underground

© Copyright 2018
The Weather Company, LLC